Time;durP1;ratioP1;P1;durP2;ratioP2;P2;SDS_P1;SDS_P2;PMS_P1;PMS_P2;Temp;Humidity;BMP_temperature;BMP_pressure;BME280_temperature;BME280_humidity;BME280_pressure;Samples;Min_cycle;Max_cycle;Signal;HPM_P1;HPM_P2
2022/09/27 00:02:49;;;;;;;29.18;20.05;;;;;;;7.89;89.50;98800.23;2044989;84;21035;-71
2022/09/27 00:06:15;;;;;;;33.55;24.70;;;;;;;7.94;89.64;98795.70;2049225;85;21088;-72
2022/09/27 00:09:17;;;;;;;33.48;23.73;;;;;;;7.97;89.74;98792.69;2006192;86;21101;-71
2022/09/27 00:12:18;;;;;;;33.00;22.93;;;;;;;8.03;89.96;98786.70;2046007;85;21078;-71
2022/09/27 00:15:19;;;;;;;34.92;22.90;;;;;;;8.05;89.80;98781.56;2028099;86;21122;-70
2022/09/27 00:18:21;;;;;;;33.08;23.75;;;;;;;8.05;89.60;98785.52;2042616;84;21065;-72
2022/09/27 00:21:22;;;;;;;33.58;24.80;;;;;;;8.07;89.76;98778.21;2071718;84;21118;-71
2022/09/27 00:24:23;;;;;;;32.03;22.90;;;;;;;8.09;89.84;98770.94;2074543;84;21045;-76
2022/09/27 00:27:25;;;;;;;33.38;23.05;;;;;;;8.14;90.18;98771.71;2068757;84;21122;-70
2022/09/27 00:30:28;;;;;;;38.80;25.43;;;;;;;8.16;90.08;98766.23;2050736;85;21519;-71
2022/09/27 00:33:29;;;;;;;34.83;22.95;;;;;;;8.18;90.15;98770.33;2063187;84;21044;-70
2022/09/27 00:36:32;;;;;;;29.52;21.90;;;;;;;8.19;90.00;98768.50;2100499;83;21545;-70
2022/09/27 00:39:34;;;;;;;28.30;21.35;;;;;;;8.19;90.08;98769.31;2086686;83;21129;-73
2022/09/27 00:42:35;;;;;;;31.25;22.32;;;;;;;8.20;90.33;98756.95;2086603;83;21074;-72
2022/09/27 00:45:36;;;;;;;32.48;22.48;;;;;;;8.22;90.29;98746.99;2110783;83;21660;-70
2022/09/27 00:48:37;;;;;;;33.20;20.77;;;;;;;8.22;90.23;98740.38;2057632;84;21399;-74
2022/09/27 00:51:41;;;;;;;30.60;21.35;;;;;;;8.17;90.02;98731.71;2057758;84;22279;-75
2022/09/27 00:54:46;;;;;;;26.17;20.92;;;;;;;8.14;90.03;98731.23;2047645;85;21185;-70
2022/09/27 00:57:48;;;;;;;25.08;19.42;;;;;;;8.11;89.84;98726.33;2051878;84;21059;-71
2022/09/27 01:00:53;;;;;;;29.52;20.72;;;;;;;8.06;89.75;98717.66;2048268;84;21150;-70
2022/09/27 01:04:15;;;;;;;27.95;19.45;;;;;;;8.04;89.82;98719.66;2094942;83;21094;-70
2022/09/27 01:07:17;;;;;;;23.07;17.77;;;;;;;8.01;89.75;98719.52;2090448;83;21096;-72
2022/09/27 01:10:19;;;;;;;22.48;17.65;;;;;;;7.97;89.44;98712.13;2020234;85;21005;-71
2022/09/27 01:13:26;;;;;;;22.55;18.50;;;;;;;7.93;89.12;98713.52;2051915;84;21118;-70
2022/09/27 01:16:32;;;;;;;25.82;18.73;;;;;;;7.82;88.92;98701.59;2058571;84;21396;-74
2022/09/27 01:19:58;;;;;;;24.60;17.62;;;;;;;7.80;89.34;98700.98;2051815;85;21013;-73
2022/09/27 01:23:42;;;;;;;23.25;17.57;;;;;;;7.70;88.98;98695.95;2048441;84;21051;-72
2022/09/27 01:27:32;;;;;;;24.63;18.32;;;;;;;7.63;89.17;98686.64;2041402;85;21150;-70
2022/09/27 01:30:45;;;;;;;26.25;18.92;;;;;;;7.54;89.09;98692.99;2053056;85;21049;-71
2022/09/27 01:34:04;;;;;;;29.90;21.65;;;;;;;7.47;89.38;98682.86;2080319;84;21195;-71
2022/09/27 01:37:19;;;;;;;26.07;20.27;;;;;;;7.49;89.83;98680.02;2055948;84;21123;-78
2022/09/27 01:40:39;;;;;;;32.13;21.33;;;;;;;7.48;89.92;98677.08;2062720;85;22277;-71
2022/09/27 01:43:53;;;;;;;32.38;21.85;;;;;;;7.45;89.96;98672.16;2033781;85;21595;-71
2022/09/27 01:47:02;;;;;;;33.28;23.38;;;;;;;7.39;89.85;98673.70;2048312;85;21106;-72
2022/09/27 01:50:13;;;;;;;33.50;23.30;;;;;;;7.38;89.98;98672.89;2065352;85;21075;-71
2022/09/27 01:53:26;;;;;;;31.62;22.15;;;;;;;7.37;89.99;98675.19;2105728;82;21065;-71
2022/09/27 01:56:35;;;;;;;27.40;20.57;;;;;;;7.36;89.94;98668.80;2104441;82;21055;-71
2022/09/27 01:59:53;;;;;;;26.65;19.82;;;;;;;7.36;89.84;98670.92;2099724;83;21042;-71
2022/09/27 02:03:18;;;;;;;31.57;20.10;;;;;;;7.32;89.53;98669.66;2107496;83;21115;-71
2022/09/27 02:06:26;;;;;;;28.32;18.95;;;;;;;7.25;89.35;98667.41;2110233;82;21058;-71
2022/09/27 02:09:50;;;;;;;27.05;17.07;;;;;;;7.21;89.13;98658.23;2101071;83;21112;-71
2022/09/27 02:13:22;;;;;;;25.37;20.50;;;;;;;7.15;88.79;98665.05;2104184;83;21060;-71
2022/09/27 02:16:51;;;;;;;32.60;20.23;;;;;;;7.07;88.81;98655.90;2112394;83;21075;-70
2022/09/27 02:20:16;;;;;;;39.65;19.30;;;;;;;7.01;89.12;98650.50;2086864;83;22051;-71
2022/09/27 02:23:48;;;;;;;38.15;21.20;;;;;;;6.90;89.11;98645.19;2111969;83;21598;-71
2022/09/27 02:26:54;;;;;;;28.20;20.75;;;;;;;6.80;89.31;98645.42;2073817;83;21066;-71
2022/09/27 02:30:09;;;;;;;27.35;17.92;;;;;;;6.73;89.35;98647.97;2107924;83;21506;-71
2022/09/27 02:33:11;;;;;;;137.03;19.12;;;;;;;6.69;89.14;98634.80;2120422;83;21034;-71
2022/09/27 02:36:14;;;;;;;200.80;20.45;;;;;;;6.66;89.20;98636.98;2111630;83;21043;-71
2022/09/27 02:39:17;;;;;;;54.98;17.70;;;;;;;6.62;89.23;98634.39;2103916;83;21115;-74
2022/09/27 02:42:18;;;;;;;107.67;19.73;;;;;;;6.59;89.27;98628.13;2111795;83;20982;-72
2022/09/27 02:45:20;;;;;;;52.45;18.00;;;;;;;6.56;89.01;98619.27;2112441;83;21107;-71
2022/09/27 02:49:04;;;;;;;81.67;19.60;;;;;;;6.46;89.10;98605.84;2111506;83;20990;-73
2022/09/27 02:52:42;;;;;;;112.17;20.48;;;;;;;6.45;89.41;98606.04;2100282;83;21080;-70
2022/09/27 02:56:17;;;;;;;154.40;20.62;;;;;;;6.50;90.09;98608.94;2079561;84;21052;-72
2022/09/27 03:00:06;;;;;;;79.15;19.95;;;;;;;6.52;90.30;98600.36;2099333;83;21034;-71
2022/09/27 03:03:27;;;;;;;77.15;21.50;;;;;;;6.52;90.41;98597.73;2109133;83;21062;-71
2022/09/27 03:06:32;;;;;;;98.60;21.10;;;;;;;6.52;90.53;98593.77;2113696;82;22414;-76
2022/09/27 03:09:47;;;;;;;120.25;21.93;;;;;;;6.55;90.65;98593.92;2091114;83;21455;-71
2022/09/27 03:12:49;;;;;;;102.07;22.05;;;;;;;6.55;90.74;98594.73;2107264;83;21014;-72
2022/09/27 03:15:50;;;;;;;116.28;22.15;;;;;;;6.55;90.73;98589.47;2087109;83;21076;-70
2022/09/27 03:19:10;;;;;;;143.52;22.35;;;;;;;6.47;90.74;98576.36;2098506;83;21140;-70
2022/09/27 03:22:15;;;;;;;168.22;23.22;;;;;;;6.42;90.77;98573.43;2105086;82;20994;-73
2022/09/27 03:25:18;;;;;;;121.75;22.45;;;;;;;6.41;90.83;98570.48;2107818;83;21106;-70
2022/09/27 03:28:20;;;;;;;114.37;23.18;;;;;;;6.40;90.82;98570.98;2094135;83;21707;-73
2022/09/27 03:31:21;;;;;;;81.02;20.37;;;;;;;6.41;90.92;98569.17;2060937;85;22330;-71
2022/09/27 03:34:28;;;;;;;66.55;22.27;;;;;;;6.43;90.90;98569.81;2109275;83;21077;-75
2022/09/27 03:37:29;;;;;;;109.22;23.00;;;;;;;6.46;91.01;98558.92;2047817;85;21607;-71
2022/09/27 03:40:30;;;;;;;92.00;21.40;;;;;;;6.46;90.90;98555.78;2100897;83;21001;-72
2022/09/27 03:43:31;;;;;;;119.85;22.75;;;;;;;6.47;90.89;98560.55;2112417;83;21017;-71
2022/09/27 03:46:35;;;;;;;60.03;22.70;;;;;;;6.44;90.80;98553.81;2111963;83;21497;-71
2022/09/27 03:49:36;;;;;;;93.78;22.13;;;;;;;6.44;90.92;98546.41;2093769;83;21150;-72
2022/09/27 03:52:37;;;;;;;59.93;22.22;;;;;;;6.44;91.03;98548.55;2097432;82;21079;-71
2022/09/27 03:55:39;;;;;;;112.90;23.10;;;;;;;6.45;91.01;98545.44;2101753;82;21105;-70
2022/09/27 03:58:40;;;;;;;36.13;22.73;;;;;;;6.49;91.14;98548.02;2112018;82;21031;-71
2022/09/27 04:01:43;;;;;;;56.28;23.07;;;;;;;6.50;91.26;98546.54;2108146;83;21136;-72
2022/09/27 04:04:46;;;;;;;37.40;21.97;;;;;;;6.54;91.20;98548.31;2087392;83;21475;-71
2022/09/27 04:07:48;;;;;;;35.03;23.07;;;;;;;6.57;91.34;98540.55;2119604;83;21611;-72
2022/09/27 04:10:50;;;;;;;34.48;23.83;;;;;;;6.56;91.43;98531.83;2100525;82;21006;-71
2022/09/27 04:13:51;;;;;;;33.05;23.52;;;;;;;6.58;91.59;98531.63;2106229;82;21020;-71
2022/09/27 04:16:54;;;;;;;34.03;23.10;;;;;;;6.60;91.88;98533.09;2105718;82;21616;-71
2022/09/27 04:19:55;;;;;;;35.78;25.45;;;;;;;6.65;91.98;98533.88;2059169;84;21039;-71
2022/09/27 04:22:56;;;;;;;34.00;24.90;;;;;;;6.69;91.99;98536.46;2052475;85;21054;-72
2022/09/27 04:25:57;;;;;;;39.05;26.87;;;;;;;6.73;91.81;98535.94;2051199;85;21072;-71
2022/09/27 04:29:08;;;;;;;37.93;26.93;;;;;;;6.72;91.76;98531.64;2072214;84;21074;-71
2022/09/27 04:32:12;;;;;;;34.83;23.12;;;;;;;6.76;91.75;98539.19;2078913;83;21081;-70
2022/09/27 04:38:36;;;;;;;40.33;27.40;;;;;;;6.80;91.91;98532.56;2106540;83;21068;-70
2022/09/27 04:41:37;;;;;;;37.48;25.70;;;;;;;6.87;92.08;98540.05;2109507;83;21065;-70
2022/09/27 04:44:39;;;;;;;33.65;23.95;;;;;;;6.91;92.13;98533.44;2113843;82;21642;-77
2022/09/27 04:47:47;;;;;;;40.23;27.15;;;;;;;6.96;92.11;98532.39;2096341;83;22519;-70
2022/09/27 04:50:57;;;;;;;37.58;25.57;;;;;;;7.02;92.26;98532.98;2106909;82;21117;-72
2022/09/27 04:53:58;;;;;;;39.03;26.00;;;;;;;7.09;92.32;98528.59;2110440;83;21104;-73
2022/09/27 04:57:01;;;;;;;41.20;27.62;;;;;;;7.17;92.39;98524.55;2015757;85;21064;-70
2022/09/27 05:00:04;;;;;;;37.83;24.23;;;;;;;7.25;92.57;98524.14;2041517;85;21078;-73
2022/09/27 05:03:07;;;;;;;38.23;25.10;;;;;;;7.31;92.54;98517.61;2032072;86;21511;-77
2022/09/27 05:06:10;;;;;;;41.63;25.65;;;;;;;7.39;92.51;98518.02;2102098;83;22402;-73
2022/09/27 05:09:13;;;;;;;38.65;25.88;;;;;;;7.50;92.69;98512.26;2054202;85;21098;-76
2022/09/27 05:12:26;;;;;;;36.70;24.98;;;;;;;7.71;92.92;98506.68;2106718;82;21577;-77
2022/09/27 05:15:29;;;;;;;30.90;23.20;;;;;;;7.91;92.91;98502.41;2103381;83;21095;-73
2022/09/27 05:18:41;;;;;;;30.12;22.98;;;;;;;8.08;92.77;98501.64;2109174;83;21095;-73
2022/09/27 05:22:01;;;;;;;33.13;22.70;;;;;;;8.23;92.66;98498.95;2092463;83;21087;-80
2022/09/27 05:25:04;;;;;;;27.58;20.72;;;;;;;8.35;92.52;98501.88;2105706;83;21547;-82
2022/09/27 05:28:06;;;;;;;31.73;23.15;;;;;;;8.46;92.32;98498.74;2112319;82;21063;-77
2022/09/27 05:31:07;;;;;;;32.13;23.00;;;;;;;8.48;92.11;98497.54;2116482;83;21585;-74
2022/09/27 05:34:09;;;;;;;27.73;20.92;;;;;;;8.51;91.95;98494.51;2113564;82;22211;-73
2022/09/27 05:37:13;;;;;;;32.95;22.07;;;;;;;8.51;91.82;98499.80;2105334;83;21645;-74
2022/09/27 05:40:14;;;;;;;27.50;20.50;;;;;;;8.53;91.78;98492.50;2099181;83;21671;-72
2022/09/27 05:43:17;;;;;;;27.93;20.85;;;;;;;8.54;91.58;98489.34;2108707;82;20975;-74
2022/09/27 05:46:18;;;;;;;26.27;20.10;;;;;;;8.52;91.47;98502.73;2112909;82;21132;-72
2022/09/27 05:49:20;;;;;;;29.60;20.27;;;;;;;8.52;91.57;98504.06;2095419;82;21078;-82
2022/09/27 05:52:21;;;;;;;26.37;19.07;;;;;;;8.51;91.54;98502.44;2109327;82;21085;-73
2022/09/27 05:55:23;;;;;;;28.47;20.25;;;;;;;8.53;91.63;98499.11;2113613;82;21078;-76
2022/09/27 05:58:27;;;;;;;25.55;19.37;;;;;;;8.53;91.67;98489.86;2094318;83;21073;-73
2022/09/27 06:01:34;;;;;;;28.73;21.12;;;;;;;8.54;91.69;98493.31;2119526;83;21115;-75
2022/09/27 06:04:54;;;;;;;28.02;21.42;;;;;;;8.55;91.77;98479.07;2114308;83;21168;-73
2022/09/27 06:08:16;;;;;;;29.42;22.22;;;;;;;8.62;92.03;98480.45;2113646;83;21042;-76
2022/09/27 06:11:19;;;;;;;33.02;22.95;;;;;;;8.70;91.91;98477.63;2099311;83;21591;-73
2022/09/27 06:14:23;;;;;;;29.37;20.08;;;;;;;8.75;91.87;98471.25;2092765;83;21156;-81
2022/09/27 06:17:37;;;;;;;30.88;22.22;;;;;;;8.83;91.91;98481.68;2100106;83;21118;-72
2022/09/27 06:20:41;;;;;;;33.50;22.70;;;;;;;8.84;91.76;98473.23;2117937;83;21619;-74
2022/09/27 06:23:43;;;;;;;32.28;23.15;;;;;;;8.91;92.03;98480.20;2105323;83;21077;-73
2022/09/27 06:26:46;;;;;;;30.30;22.20;;;;;;;8.97;91.99;98476.77;2103322;83;22323;-73
2022/09/27 06:29:56;;;;;;;29.45;21.25;;;;;;;9.05;91.96;98477.11;2096816;83;21071;-73
2022/09/27 06:33:18;;;;;;;30.05;20.70;;;;;;;9.12;91.93;98481.09;2108276;83;21140;-74
2022/09/27 06:36:21;;;;;;;30.05;21.12;;;;;;;9.18;91.88;98484.30;2109562;82;21010;-74
2022/09/27 06:39:23;;;;;;;26.23;19.60;;;;;;;9.16;91.70;98479.70;2099175;83;21540;-76
2022/09/27 06:42:28;;;;;;;31.70;21.40;;;;;;;9.18;91.81;98475.85;2103958;83;21150;-74
2022/09/27 06:45:41;;;;;;;26.73;20.10;;;;;;;9.27;92.02;98464.59;2050806;84;21012;-73
2022/09/27 06:48:56;;;;;;;28.38;21.00;;;;;;;9.33;91.95;98465.11;2042990;85;21575;-77
2022/09/27 06:51:58;;;;;;;28.70;19.15;;;;;;;9.36;91.83;98467.87;2045060;85;21597;-72
2022/09/27 06:55:01;;;;;;;27.65;19.37;;;;;;;9.37;91.73;98466.33;2051206;85;21115;-74
2022/09/27 07:01:29;;;;;;;24.80;19.20;;;;;;;9.34;91.80;98465.41;2104876;83;21022;-78
2022/09/27 07:04:35;;;;;;;28.55;20.20;;;;;;;9.43;92.05;98472.66;2069248;83;21061;-72
2022/09/27 07:07:42;;;;;;;30.65;20.15;;;;;;;9.54;92.38;98476.56;2116251;83;21135;-72
2022/09/27 07:10:46;;;;;;;31.33;21.40;;;;;;;9.67;92.47;98475.79;2040216;85;21070;-75
2022/09/27 07:13:49;;;;;;;30.08;21.12;;;;;;;9.70;92.20;98462.95;2107501;83;21576;-83
2022/09/27 07:16:50;;;;;;;28.75;20.25;;;;;;;9.70;92.20;98462.95;2067100;84;21126;-84
2022/09/27 07:19:55;;;;;;;29.63;20.75;;;;;;;9.95;92.36;98480.92;2081029;84;21534;-76
2022/09/27 07:22:57;;;;;;;27.10;20.10;;;;;;;10.07;92.19;98481.94;2043616;85;21052;-76
2022/09/27 07:26:06;;;;;;;26.27;18.17;;;;;;;10.06;91.51;98475.83;2112983;83;21044;-76
2022/09/27 07:29:09;;;;;;;25.70;18.20;;;;;;;10.07;91.47;98480.62;2113099;83;21041;-77
2022/09/27 07:32:12;;;;;;;23.95;18.17;;;;;;;10.07;91.47;98480.62;2110124;83;21554;-76
2022/09/27 07:35:14;;;;;;;26.95;18.05;;;;;;;9.97;91.29;98455.86;2093801;83;21114;-77
2022/09/27 07:38:16;;;;;;;27.07;18.65;;;;;;;10.11;91.16;98471.26;2060597;85;21074;-76
2022/09/27 07:41:18;;;;;;;27.48;18.50;;;;;;;10.05;91.06;98462.77;2108099;82;21080;-82
2022/09/27 07:44:19;;;;;;;28.70;18.40;;;;;;;10.14;91.28;98458.92;2117836;82;21003;-76
2022/09/27 07:47:24;;;;;;;26.82;18.92;;;;;;;10.18;91.24;98460.13;2101441;83;21145;-77
2022/09/27 07:50:44;;;;;;;23.70;17.52;;;;;;;10.24;91.26;98465.93;2115333;83;21710;-78
2022/09/27 07:53:56;;;;;;;30.77;20.05;;;;;;;10.27;91.06;98464.23;2086266;83;21632;-76
2022/09/27 07:57:12;;;;;;;28.32;19.12;;;;;;;10.27;91.06;98464.23;2104053;83;21062;-77
2022/09/27 08:00:22;;;;;;;32.42;19.12;;;;;;;10.35;91.66;98468.52;2101312;83;21083;-75
2022/09/27 08:03:21;;;;;;;25.90;19.25;;;;;;;10.35;91.66;98468.52;2113475;83;21606;-76
2022/09/27 08:06:23;;;;;;;24.82;19.07;;;;;;;10.37;91.22;98467.00;2103772;83;21038;-78
2022/09/27 08:09:27;;;;;;;27.95;20.02;;;;;;;10.37;91.35;98468.32;2107139;82;21132;-79
2022/09/27 08:12:28;;;;;;;31.60;21.40;;;;;;;10.38;91.33;98469.94;2114253;82;21600;-79
2022/09/27 08:15:37;;;;;;;25.02;18.15;;;;;;;10.38;91.44;98464.64;2110734;82;21060;-75
2022/09/27 08:18:37;;;;;;;28.27;19.42;;;;;;;10.43;91.74;98457.70;2111104;83;21042;-75
2022/09/27 08:21:57;;;;;;;25.08;19.25;;;;;;;10.44;91.48;98447.90;2104990;83;21088;-78
2022/09/27 08:25:00;;;;;;;27.00;19.27;;;;;;;10.49;91.67;98451.56;2100337;83;21028;-77
2022/09/27 08:28:14;;;;;;;19.15;14.25;;;;;;;10.58;91.82;98444.20;2118169;82;21072;-74
2022/09/27 08:31:17;;;;;;;22.67;16.97;;;;;;;10.65;91.52;98442.88;2112897;82;21018;-74
2022/09/27 08:34:20;;;;;;;24.92;19.17;;;;;;;10.63;91.14;98447.05;2112041;82;21053;-72
2022/09/27 08:37:22;;;;;;;20.65;14.87;;;;;;;10.65;91.44;98446.86;2100200;83;21517;-78
2022/09/27 08:40:44;;;;;;;26.30;19.52;;;;;;;10.74;91.82;98446.41;2120067;82;21096;-74
2022/09/27 08:43:48;;;;;;;;;;;;;;;10.81;91.89;98451.69;2103536;83;21047;-74
2022/09/27 08:47:19;;;;;;;21.12;15.78;;;;;;;10.88;91.89;98451.17;2091090;83;20105;-72
2022/09/27 08:50:34;;;;;;;25.82;16.37;;;;;;;10.92;91.78;98443.59;2087786;83;21122;-71
2022/09/27 08:53:45;;;;;;;24.60;16.57;;;;;;;10.96;91.81;98442.17;2091660;83;21126;-69
2022/09/27 08:56:51;;;;;;;27.37;17.17;;;;;;;10.98;91.77;98436.12;2114740;83;21081;-70
2022/09/27 09:00:07;;;;;;;24.20;16.65;;;;;;;11.08;91.99;98446.30;2097636;83;21161;-70
2022/09/27 09:03:19;;;;;;;19.32;15.10;;;;;;;11.11;91.72;98437.39;2105102;83;21105;-70
2022/09/27 09:06:38;;;;;;;22.30;16.30;;;;;;;11.17;91.80;98435.22;2105104;82;21026;-72
2022/09/27 09:09:59;;;;;;;20.15;15.83;;;;;;;11.16;91.72;98438.91;2119394;83;21072;-71
2022/09/27 09:18:01;;;;;;;22.90;16.45;;;;;;;11.17;91.70;98444.52;2108406;83;21149;-72
2022/09/27 09:21:44;;;;;;;78.23;27.33;;;;;;;11.22;91.73;98453.18;2111354;83;21073;-72
2022/09/27 09:25:03;;;;;;;35.03;19.60;;;;;;;11.53;93.82;98441.78;2109789;82;21560;-71
2022/09/27 09:28:33;;;;;;;27.48;17.87;;;;;;;11.82;93.22;98456.30;2094959;82;21037;-69
2022/09/27 09:31:44;;;;;;;;;;;;;;;12.00;92.69;98450.28;2107675;83;21077;-71
2022/09/27 09:34:54;;;;;;;20.75;15.10;;;;;;;12.17;92.40;98451.08;2101087;83;20101;-68
2022/09/27 09:38:00;;;;;;;27.75;14.98;;;;;;;12.17;91.39;98453.73;2102359;83;21121;-72
2022/09/27 09:41:16;;;;;;;23.25;15.88;;;;;;;12.05;90.64;98457.10;2107563;83;21068;-73
2022/09/27 09:44:28;;;;;;;19.70;14.90;;;;;;;11.95;90.58;98457.28;2108812;82;21460;-71
2022/09/27 09:47:40;;;;;;;20.88;16.23;;;;;;;11.79;90.17;98462.56;2107042;83;21529;-71
2022/09/27 09:50:46;;;;;;;23.15;16.23;;;;;;;11.63;90.20;98451.44;2092230;83;21041;-74
2022/09/27 09:54:03;;;;;;;21.70;16.40;;;;;;;11.53;90.40;98456.39;2083438;83;21081;-70
2022/09/27 09:57:18;;;;;;;21.70;15.93;;;;;;;11.48;90.75;98453.55;2093650;82;21657;-75
2022/09/27 10:00:21;;;;;;;21.73;15.68;;;;;;;11.39;90.69;98447.67;2099285;82;21172;-72
2022/09/27 10:03:23;;;;;;;22.00;16.27;;;;;;;11.36;90.92;98455.27;2108227;83;21009;-78
2022/09/27 10:06:27;;;;;;;22.58;17.17;;;;;;;11.31;91.14;98454.56;2108722;83;21025;-72
2022/09/27 10:09:29;;;;;;;20.75;15.85;;;;;;;11.31;91.46;98433.84;2042875;84;21164;-83
2022/09/27 10:12:31;;;;;;;22.37;16.20;;;;;;;11.32;91.46;98434.12;2107504;83;21067;-74
2022/09/27 10:15:34;;;;;;;17.45;14.30;;;;;;;11.40;91.73;98418.78;2104999;82;21093;-86
2022/09/27 10:18:38;;;;;;;16.48;13.62;;;;;;;11.46;91.58;98418.45;2115126;83;20974;-79
2022/09/27 10:21:44;;;;;;;18.23;14.13;;;;;;;11.46;91.85;98413.13;2103322;83;20977;-80
2022/09/27 10:25:06;;;;;;;19.70;15.95;;;;;;;11.42;91.47;98396.79;2099452;82;21029;-72
2022/09/27 10:28:42;;;;;;;18.12;14.95;;;;;;;11.50;92.29;98398.39;2100572;82;21038;-72
2022/09/27 10:31:47;;;;;;;17.82;14.93;;;;;;;11.55;92.39;98392.44;2116310;83;21096;-72
2022/09/27 10:34:50;;;;;;;18.87;15.43;;;;;;;11.60;92.33;98381.95;2109172;82;21091;-88
2022/09/27 10:37:52;;;;;;;18.00;15.20;;;;;;;11.63;92.14;98385.55;2109204;82;21050;-75
2022/09/27 10:41:00;;;;;;;20.10;15.25;;;;;;;11.64;92.29;98376.53;2109251;82;21077;-76
2022/09/27 10:44:24;;;;;;;18.42;14.85;;;;;;;11.68;92.56;98383.03;2104116;82;21105;-76
2022/09/27 10:47:28;;;;;;;17.80;15.15;;;;;;;11.73;92.65;98385.85;2044299;85;21125;-76
2022/09/27 10:50:46;;;;;;;26.10;19.00;;;;;;;11.70;92.46;98385.48;2035090;85;21028;-77
2022/09/27 10:53:57;;;;;;;20.97;17.10;;;;;;;11.73;92.79;98392.50;2055370;84;21084;-77
2022/09/27 10:57:15;;;;;;;22.05;16.75;;;;;;;11.79;92.79;98393.48;2108115;83;21071;-81
2022/09/27 11:00:31;;;;;;;20.50;16.48;;;;;;;11.84;92.78;98388.33;2102289;83;21546;-73
2022/09/27 11:03:38;;;;;;;25.45;20.27;;;;;;;11.87;92.79;98394.05;2055627;84;21144;-79
2022/09/27 11:06:40;;;;;;;24.85;19.75;;;;;;;11.93;92.99;98400.34;2056165;84;21134;-75
2022/09/27 11:09:53;;;;;;;19.17;15.90;;;;;;;11.94;92.83;98395.83;2026592;85;21087;-73
2022/09/27 11:13:16;;;;;;;25.23;19.27;;;;;;;11.96;92.79;98395.91;2118188;82;20990;-84
2022/09/27 11:16:40;;;;;;;20.72;16.48;;;;;;;11.96;92.77;98397.25;2102232;82;21005;-80
2022/09/27 11:20:15;;;;;;;20.30;17.05;;;;;;;11.93;93.01;98387.05;2109562;83;21060;-79
2022/09/27 11:23:49;;;;;;;25.40;20.52;;;;;;;11.88;92.90;98387.72;2117415;83;21564;-74
2022/09/27 11:27:34;;;;;;;19.60;16.87;;;;;;;11.92;92.96;98390.75;2094467;83;21030;-78
2022/09/27 11:30:47;;;;;;;18.62;14.93;;;;;;;11.92;92.98;98384.11;2095707;83;21010;-76
2022/09/27 11:35:05;;;;;;;22.37;15.60;;;;;;;11.91;92.87;98390.47;2095132;82;20995;-74
2022/09/27 11:38:27;;;;;;;23.18;17.15;;;;;;;11.88;92.77;98389.05;2118901;83;21041;-76
2022/09/27 11:42:04;;;;;;;18.52;16.50;;;;;;;11.87;92.92;98382.61;2117741;83;21050;-74
2022/09/27 11:45:32;;;;;;;20.27;17.05;;;;;;;11.86;93.06;98382.33;2125030;82;21073;-75
2022/09/27 11:48:54;;;;;;;22.15;17.98;;;;;;;11.86;92.96;98388.45;2104772;82;21025;-73
2022/09/27 11:52:04;;;;;;;26.52;20.40;;;;;;;11.87;93.11;98383.94;2113482;82;21084;-76
2022/09/27 11:55:28;;;;;;;21.27;17.05;;;;;;;11.88;93.35;98385.55;2027062;86;21121;-76
2022/09/27 11:59:01;;;;;;;25.85;18.70;;;;;;;11.89;93.46;98379.23;2102790;82;21048;-74
2022/09/27 12:02:11;;;;;;;26.37;17.25;;;;;;;11.91;93.53;98375.01;2108102;82;21071;-83
2022/09/27 12:05:50;;;;;;;30.13;21.03;;;;;;;11.92;93.67;98369.48;2082343;82;21097;-77
2022/09/27 12:09:08;;;;;;;24.75;16.87;;;;;;;11.94;93.59;98367.44;2100280;83;20986;-71
2022/09/27 12:12:21;;;;;;;27.55;21.35;;;;;;;11.97;93.87;98363.01;2106223;83;21084;-74
2022/09/27 12:15:29;;;;;;;30.27;20.75;;;;;;;12.00;94.29;98365.75;2112888;83;21053;-76
2022/09/27 12:18:40;;;;;;;23.92;19.00;;;;;;;12.04;94.20;98365.08;2118247;82;21044;-73
2022/09/27 12:21:44;;;;;;;26.75;18.85;;;;;;;12.07;94.16;98367.29;2086091;83;21090;-75
2022/09/27 12:24:47;;;;;;;28.77;20.70;;;;;;;12.13;94.18;98360.81;2108982;83;21112;-78
2022/09/27 12:28:00;;;;;;;24.92;19.65;;;;;;;12.14;94.06;98361.13;2098571;83;20975;-76
2022/09/27 12:31:10;;;;;;;26.27;17.05;;;;;;;12.18;94.08;98360.97;2096318;82;21017;-81
2022/09/27 12:34:54;;;;;;;23.27;16.17;;;;;;;12.21;93.90;98360.52;2105439;83;21088;-75
2022/09/27 12:38:22;;;;;;;17.95;15.00;;;;;;;12.21;93.79;98360.52;2104100;83;21613;-75
2022/09/27 12:41:27;;;;;;;19.02;14.80;;;;;;;12.21;93.93;98359.20;2119879;83;21685;-75
2022/09/27 12:44:40;;;;;;;17.00;13.18;;;;;;;12.21;93.82;98356.02;2110207;83;21075;-76
2022/09/27 12:48:28;;;;;;;21.60;15.70;;;;;;;12.20;93.67;98356.25;2106314;83;21034;-72
2022/09/27 12:51:40;;;;;;;16.25;12.47;;;;;;;12.22;93.75;98359.48;2114432;83;21116;-78
2022/09/27 12:55:15;;;;;;;18.37;14.13;;;;;;;12.21;93.45;98357.87;2108757;83;21073;-76
2022/09/27 12:58:34;;;;;;;18.00;13.70;;;;;;;12.20;93.52;98356.25;2099493;83;21088;-77
2022/09/27 13:02:09;;;;;;;14.95;13.22;;;;;;;12.22;93.82;98348.84;2098216;83;21009;-76
2022/09/27 13:05:26;;;;;;;17.48;13.18;;;;;;;12.22;93.66;98348.36;2107221;82;21104;-82
2022/09/27 13:08:46;;;;;;;14.93;12.95;;;;;;;12.26;93.74;98346.06;2058076;84;21119;-74
2022/09/27 13:12:23;;;;;;;14.15;9.98;;;;;;;12.26;93.67;98344.20;2062214;84;21102;-75
2022/09/27 13:15:34;;;;;;;12.23;9.65;;;;;;;12.24;93.46;98343.61;2059548;84;21145;-77
2022/09/27 13:18:50;;;;;;;10.75;9.05;;;;;;;12.14;93.07;98339.86;2039980;85;21133;-76
2022/09/27 13:21:56;;;;;;;12.47;9.70;;;;;;;12.07;93.24;98335.91;2070397;82;21085;-81
2022/09/27 13:25:25;;;;;;;13.38;10.03;;;;;;;11.99;93.30;98335.67;2064044;84;21078;-76
2022/09/27 13:28:34;;;;;;;13.98;9.55;;;;;;;11.99;93.55;98330.88;2054708;84;21042;-78
2022/09/27 13:32:00;;;;;;;12.73;10.32;;;;;;;11.98;93.73;98328.73;2052302;85;21129;-75
2022/09/27 13:35:20;;;;;;;11.28;10.08;;;;;;;11.98;93.50;98330.07;2051687;84;21667;-76
2022/09/27 13:38:28;;;;;;;11.80;9.70;;;;;;;11.95;93.51;98329.19;2053100;84;21168;-77
2022/09/27 13:41:48;;;;;;;8.93;7.83;;;;;;;11.91;93.60;98333.33;2083151;82;21100;-76
2022/09/27 13:45:05;;;;;;;11.48;9.50;;;;;;;11.86;93.56;98333.97;2040798;84;28810;-77
2022/09/27 13:48:12;;;;;;;12.15;8.85;;;;;;;11.84;93.61;98317.91;2062587;84;21175;-76
2022/09/27 13:51:52;;;;;;;8.85;7.92;;;;;;;11.84;93.41;98332.53;2050582;84;21619;-79
2022/09/27 13:55:03;;;;;;;10.72;8.55;;;;;;;11.80;93.55;98326.84;2040292;85;21116;-76
2022/09/27 13:58:40;;;;;;;9.43;8.40;;;;;;;11.75;93.67;98324.54;2051988;84;21085;-80
2022/09/27 14:01:59;;;;;;;10.35;7.87;;;;;;;11.71;93.72;98322.00;2033221;85;21670;-76
2022/09/27 14:05:07;;;;;;;12.00;8.68;;;;;;;11.65;94.00;98324.50;2049383;84;21691;-78
2022/09/27 14:08:17;;;;;;;11.25;7.78;;;;;;;11.60;94.07;98305.77;2019546;84;21096;-77
2022/09/27 14:11:30;;;;;;;9.05;7.80;;;;;;;11.56;94.27;98305.88;2062442;84;22162;-76
2022/09/27 14:14:33;;;;;;;9.95;7.83;;;;;;;11.53;94.21;98306.32;2100035;83;21113;-81
2022/09/27 14:17:38;;;;;;;13.48;9.10;;;;;;;11.54;94.26;98300.48;2086112;83;21070;-79
2022/09/27 14:20:46;;;;;;;11.73;9.10;;;;;;;11.55;94.55;98303.45;2095759;83;21131;-76
2022/09/27 14:24:27;;;;;;;12.58;8.58;;;;;;;11.56;94.59;98305.88;2052083;83;21160;-76
2022/09/27 14:27:38;;;;;;;11.60;9.68;;;;;;;11.57;94.99;98306.20;2091496;82;21120;-76
2022/09/27 14:31:17;;;;;;;9.45;8.45;;;;;;;11.56;94.96;98311.20;2111450;82;21110;-85
2022/09/27 14:34:33;;;;;;;10.18;7.92;;;;;;;11.55;95.30;98316.74;2089389;82;21612;-79
2022/09/27 14:37:35;;;;;;;10.53;7.75;;;;;;;11.51;95.29;98317.66;2102674;82;21052;-77
2022/09/27 14:40:43;;;;;;;13.05;8.85;;;;;;;11.51;95.53;98313.69;2052981;84;21050;-77
2022/09/27 14:43:49;;;;;;;9.80;7.53;;;;;;;11.53;95.56;98311.63;2065683;84;21673;-76
2022/09/27 14:47:26;;;;;;;10.35;7.22;;;;;;;11.55;95.71;98308.25;2069244;84;21073;-77
2022/09/27 14:50:29;;;;;;;7.50;6.55;;;;;;;11.56;95.68;98308.54;2096837;81;21014;-80
2022/09/27 14:53:44;;;;;;;8.20;6.72;;;;;;;11.59;95.67;98318.73;2090235;83;21077;-79
2022/09/27 14:57:08;;;;;;;7.90;6.55;;;;;;;11.60;95.83;98315.55;2101621;82;21541;-78
2022/09/27 15:00:17;;;;;;;8.55;6.70;;;;;;;11.61;95.80;98318.00;2051653;84;21664;-80